Time;durP1;ratioP1;P1;durP2;ratioP2;P2;SDS_P1;SDS_P2;PMS_P1;PMS_P2;Temp;Humidity;BMP_temperature;BMP_pressure;BME280_temperature;BME280_humidity;BME280_pressure;Samples;Min_cycle;Max_cycle;Signal;HPM_P1;HPM_P2
2021/12/10 00:01:00;;;;;;;;;;;;;;;;;;2098974;28;19923;-82
2021/12/10 00:02:04;;;;;;;;;;;;;;;;;;2099078;28;19913;-82
2021/12/10 00:03:07;;;;;;;;;;;;;;;;;;2098886;28;19989;-81
2021/12/10 00:04:08;;;;;;;;;;;;;;;;;;2098942;28;19916;-81
2021/12/10 00:05:15;;;;;;;;;;;;;;;;;;2098954;28;19913;-82
2021/12/10 00:06:15;;;;;;;;;;;;;;;;;;2098819;28;19999;-82
2021/12/10 00:07:20;;;;;;;;;;;;;;;;;;2098905;28;19912;-81
2021/12/10 00:08:21;;;;;;;;;;;;;;;;;;2098988;28;19912;-81
2021/12/10 00:09:27;;;;;;;;;;;;;;;;;;2098950;28;20280;-81
2021/12/10 00:11:02;;;;;;;;;;;;;;;;;;2089905;28;19967;-81
2021/12/10 00:12:40;;;;;;;;;;;;;;;;;;2054611;28;19914;-81
2021/12/10 00:13:44;;;;;;;;;;;;;;;;;;2062165;28;19913;-81
2021/12/10 00:14:48;;;;;;;;;;;;;;;;;;2065144;28;19957;-81
2021/12/10 00:15:58;;;;;;;;;;;;;;;;;;2073535;28;19913;-81
2021/12/10 00:17:01;;;;;;;;;;;;;;;;;;2090094;28;20269;-81
2021/12/10 00:18:04;;;;;;;;;;;;;;;;;;2090383;28;19935;-81
2021/12/10 00:19:21;;;;;;;;;;;;;;;;;;2098845;28;19912;-80
2021/12/10 00:20:26;;;;;;;;;;;;;;;;;;2098998;28;19912;-81
2021/12/10 00:21:29;;;;;;;;;;;;;;;;;;2098800;28;19923;-80
2021/12/10 00:22:41;;;;;;;;;;;;;;;;;;2098864;28;20357;-81
2021/12/10 00:23:46;;;;;;;;;;;;;;;;;;2089966;28;19913;-80
2021/12/10 00:24:47;;;;;;;;;;;;;;;;;;2090997;28;19992;-80
2021/12/10 00:25:49;;;;;;;;;;;;;;;;;;2098705;28;19912;-81
2021/12/10 00:26:50;;;;;;;;;;;;;;;;;;2098999;28;19923;-81
2021/12/10 00:27:52;;;;;;;;;;;;;;;;;;2089986;28;19952;-81
2021/12/10 00:29:00;;;;;;;;;;;;;;;;;;2082074;28;19924;-80
2021/12/10 00:30:07;;;;;;;;;;;;;;;;;;2082787;28;19924;-81
2021/12/10 00:32:40;;;;;;;;;;;;;;;;;;2098729;28;20361;-80
2021/12/10 00:33:42;;;;;;;;;;;;;;;;;;2098771;28;19963;-81
2021/12/10 00:34:51;;;;;;;;;;;;;;;;;;2098738;28;19912;-80
2021/12/10 00:35:53;;;;;;;;;;;;;;;;;;2098604;28;19913;-81
2021/12/10 00:36:55;;;;;;;;;;;;;;;;;;2098785;28;20373;-81
2021/12/10 00:37:55;;;;;;;;;;;;;;;;;;2098632;28;19923;-81
2021/12/10 00:38:56;;;;;;;;;;;;;;;;;;2098911;28;19913;-81
2021/12/10 00:39:57;;;;;;;;;;;;;;;;;;2098744;28;19943;-80
2021/12/10 00:40:58;;;;;;;;;;;;;;;;;;2089909;28;19916;-80
2021/12/10 00:42:00;;;;;;;;;;;;;;;;;;2081636;28;20348;-81
2021/12/10 00:43:00;;;;;;;;;;;;;;;;;;2090128;28;19912;-80
2021/12/10 00:44:01;;;;;;;;;;;;;;;;;;2098751;28;20353;-81
2021/12/10 00:45:03;;;;;;;;;;;;;;;;;;2098616;28;19913;-81
2021/12/10 00:46:03;;;;;;;;;;;;;;;;;;2098527;28;19939;-80
2021/12/10 00:47:04;;;;;;;;;;;;;;;;;;2098570;28;20019;-81
2021/12/10 00:48:04;;;;;;;;;;;;;;;;;;2098485;28;19913;-81
2021/12/10 00:49:05;;;;;;;;;;;;;;;;;;2098666;28;19928;-81
2021/12/10 00:50:07;;;;;;;;;;;;;;;;;;2098565;28;19912;-81
2021/12/10 00:51:09;;;;;;;;;;;;;;;;;;2098583;28;20354;-80
2021/12/10 00:52:11;;;;;;;;;;;;;;;;;;2098543;28;19912;-80
2021/12/10 00:53:12;;;;;;;;;;;;;;;;;;2098533;28;19916;-81
2021/12/10 00:54:12;;;;;;;;;;;;;;;;;;2098615;28;20408;-80
2021/12/10 00:55:15;;;;;;;;;;;;;;;;;;2098536;28;19924;-80
2021/12/10 00:56:15;;;;;;;;;;;;;;;;;;2098480;28;20006;-81
2021/12/10 00:57:16;;;;;;;;;;;;;;;;;;2098673;28;20341;-80
2021/12/10 00:58:17;;;;;;;;;;;;;;;;;;2098650;28;19913;-80
2021/12/10 00:59:19;;;;;;;;;;;;;;;;;;2098531;28;20003;-79
2021/12/10 01:00:25;;;;;;;;;;;;;;;;;;2098580;28;19971;-81
2021/12/10 01:01:27;;;;;;;;;;;;;;;;;;2098548;28;20368;-81
2021/12/10 01:02:27;;;;;;;;;;;;;;;;;;2098458;28;19975;-80
2021/12/10 01:03:30;;;;;;;;;;;;;;;;;;2098556;28;19912;-80
2021/12/10 01:04:33;;;;;;;;;;;;;;;;;;2098401;28;19923;-80
2021/12/10 01:05:36;;;;;;;;;;;;;;;;;;2098413;28;19912;-80
2021/12/10 01:06:37;;;;;;;;;;;;;;;;;;2098600;28;19924;-80
2021/12/10 01:07:38;;;;;;;;;;;;;;;;;;2098487;28;19912;-79
2021/12/10 01:08:39;;;;;;;;;;;;;;;;;;2098496;28;20360;-80
2021/12/10 01:09:41;;;;;;;;;;;;;;;;;;2098371;28;19913;-80
2021/12/10 01:10:44;;;;;;;;;;;;;;;;;;2098363;28;19985;-80
2021/12/10 01:11:49;;;;;;;;;;;;;;;;;;2098400;28;20007;-80
2021/12/10 01:12:52;;;;;;;;;;;;;;;;;;2089612;28;19913;-81
2021/12/10 01:13:56;;;;;;;;;;;;;;;;;;2089861;28;19995;-81
2021/12/10 01:15:19;;;;;;;;;;;;;;;;;;2089715;28;19913;-80
2021/12/10 01:24:33;;;;;;;;;;;;;;;;;;2098346;28;20337;-81
2021/12/10 01:25:37;;;;;;;;;;;;;;;;;;2098321;28;19924;-80
2021/12/10 01:27:45;;;;;;;;;;;;;;;;;;2098367;28;19935;-80
2021/12/10 01:28:49;;;;;;;;;;;;;;;;;;2098492;28;19913;-80
2021/12/10 01:29:49;;;;;;;;;;;;;;;;;;2089472;28;20073;-80
2021/12/10 01:30:49;;;;;;;;;;;;;;;;;;2089564;28;20346;-80
2021/12/10 01:31:50;;;;;;;;;;;;;;;;;;2089748;28;19962;-81
2021/12/10 01:32:56;;;;;;;;;;;;;;;;;;2098149;28;20277;-80
2021/12/10 01:33:57;;;;;;;;;;;;;;;;;;2098241;28;20281;-80
2021/12/10 01:34:58;;;;;;;;;;;;;;;;;;2089468;28;19996;-79
2021/12/10 01:35:59;;;;;;;;;;;;;;;;;;2089616;28;19913;-80
2021/12/10 01:37:01;;;;;;;;;;;;;;;;;;2089345;28;19913;-80
2021/12/10 01:38:04;;;;;;;;;;;;;;;;;;2089886;28;19920;-80
2021/12/10 01:39:06;;;;;;;;;;;;;;;;;;2098250;28;20274;-80
2021/12/10 01:40:07;;;;;;;;;;;;;;;;;;2098204;28;20277;-80
2021/12/10 01:41:10;;;;;;;;;;;;;;;;;;2098144;28;20012;-80
2021/12/10 01:42:32;;;;;;;;;;;;;;;;;;2098174;28;19954;-80
2021/12/10 01:43:35;;;;;;;;;;;;;;;;;;2098247;28;20379;-80
2021/12/10 01:44:36;;;;;;;;;;;;;;;;;;2098321;28;19976;-81
2021/12/10 01:45:46;;;;;;;;;;;;;;;;;;2098099;28;19928;-81
2021/12/10 01:46:48;;;;;;;;;;;;;;;;;;2098252;28;19920;-81
2021/12/10 01:47:50;;;;;;;;;;;;;;;;;;2098159;28;19912;-80
2021/12/10 01:48:52;;;;;;;;;;;;;;;;;;2089422;28;20006;-80
2021/12/10 01:49:56;;;;;;;;;;;;;;;;;;2089731;28;19935;-80
2021/12/10 01:50:57;;;;;;;;;;;;;;;;;;2098049;28;20438;-81
2021/12/10 01:51:58;;;;;;;;;;;;;;;;;;2098110;28;20038;-79
2021/12/10 01:53:00;;;;;;;;;;;;;;;;;;2089343;28;19972;-80
2021/12/10 01:54:05;;;;;;;;;;;;;;;;;;2089666;28;19913;-80
2021/12/10 01:55:06;;;;;;;;;;;;;;;;;;2098172;28;19913;-79
2021/12/10 01:56:17;;;;;;;;;;;;;;;;;;2098044;28;20346;-80
2021/12/10 01:57:18;;;;;;;;;;;;;;;;;;2098110;28;19917;-79
2021/12/10 01:58:20;;;;;;;;;;;;;;;;;;2098036;28;20382;-79
2021/12/10 01:59:20;;;;;;;;;;;;;;;;;;2089267;28;19967;-79
2021/12/10 02:00:22;;;;;;;;;;;;;;;;;;2081078;28;19913;-79
2021/12/10 02:01:25;;;;;;;;;;;;;;;;;;2081359;28;19916;-80
2021/12/10 02:02:29;;;;;;;;;;;;;;;;;;2089685;28;20078;-80
2021/12/10 02:03:30;;;;;;;;;;;;;;;;;;2098101;28;19923;-79
2021/12/10 02:04:32;;;;;;;;;;;;;;;;;;2098340;28;19913;-80
2021/12/10 02:05:33;;;;;;;;;;;;;;;;;;2089171;28;19971;-80
2021/12/10 02:06:33;;;;;;;;;;;;;;;;;;2089305;28;20015;-80
2021/12/10 02:07:34;;;;;;;;;;;;;;;;;;2089476;28;19917;-80
2021/12/10 02:08:35;;;;;;;;;;;;;;;;;;2098104;28;20312;-80
2021/12/10 02:09:35;;;;;;;;;;;;;;;;;;2089374;28;20278;-80
2021/12/10 02:10:36;;;;;;;;;;;;;;;;;;2089240;28;19927;-80
2021/12/10 02:11:36;;;;;;;;;;;;;;;;;;2089211;28;19912;-80
2021/12/10 02:12:37;;;;;;;;;;;;;;;;;;2089390;28;19912;-80
2021/12/10 02:13:38;;;;;;;;;;;;;;;;;;2098014;28;20348;-80
2021/12/10 02:14:39;;;;;;;;;;;;;;;;;;2089305;28;19912;-80
2021/12/10 02:15:39;;;;;;;;;;;;;;;;;;2088987;28;20384;-80
2021/12/10 02:16:40;;;;;;;;;;;;;;;;;;2089010;28;20003;-80
2021/12/10 02:17:42;;;;;;;;;;;;;;;;;;2098123;28;19913;-80
2021/12/10 02:18:43;;;;;;;;;;;;;;;;;;2089184;28;19916;-79
2021/12/10 02:19:43;;;;;;;;;;;;;;;;;;2089382;28;20396;-80
2021/12/10 02:20:46;;;;;;;;;;;;;;;;;;2089167;28;19919;-80
2021/12/10 02:21:47;;;;;;;;;;;;;;;;;;2089261;28;19913;-80
2021/12/10 02:22:51;;;;;;;;;;;;;;;;;;2089163;28;20273;-80
2021/12/10 02:23:56;;;;;;;;;;;;;;;;;;2089369;28;20087;-80
2021/12/10 02:24:57;;;;;;;;;;;;;;;;;;2089976;28;20439;-79
2021/12/10 02:26:01;;;;;;;;;;;;;;;;;;2098007;28;19970;-80
2021/12/10 02:27:03;;;;;;;;;;;;;;;;;;2098022;28;19923;-80
2021/12/10 02:28:06;;;;;;;;;;;;;;;;;;2097984;28;19994;-80
2021/12/10 02:29:07;;;;;;;;;;;;;;;;;;2098060;28;20265;-81
2021/12/10 02:30:09;;;;;;;;;;;;;;;;;;2098159;28;20277;-80
2021/12/10 02:31:12;;;;;;;;;;;;;;;;;;2097946;28;20361;-80
2021/12/10 02:32:12;;;;;;;;;;;;;;;;;;2098027;28;19924;-80
2021/12/10 02:33:13;;;;;;;;;;;;;;;;;;2097846;28;20012;-79
2021/12/10 02:34:13;;;;;;;;;;;;;;;;;;2098097;28;20305;-79
2021/12/10 02:35:14;;;;;;;;;;;;;;;;;;2097975;28;19916;-80
2021/12/10 02:36:15;;;;;;;;;;;;;;;;;;2089109;28;19927;-80
2021/12/10 02:37:15;;;;;;;;;;;;;;;;;;2089175;28;19924;-81
2021/12/10 02:38:16;;;;;;;;;;;;;;;;;;2089310;28;19917;-80
2021/12/10 02:39:19;;;;;;;;;;;;;;;;;;2097985;28;20010;-80
2021/12/10 02:40:20;;;;;;;;;;;;;;;;;;2098009;28;20307;-80
2021/12/10 02:41:23;;;;;;;;;;;;;;;;;;2097920;28;19919;-80
2021/12/10 02:42:23;;;;;;;;;;;;;;;;;;2098030;28;19923;-81
2021/12/10 02:43:23;;;;;;;;;;;;;;;;;;2097962;28;19912;-79
2021/12/10 02:44:25;;;;;;;;;;;;;;;;;;2097947;28;19916;-80
2021/12/10 02:45:29;;;;;;;;;;;;;;;;;;2097853;28;20007;-80
2021/12/10 02:46:29;;;;;;;;;;;;;;;;;;2097909;28;20375;-79
2021/12/10 02:47:29;;;;;;;;;;;;;;;;;;2089050;28;19960;-80
2021/12/10 02:48:30;;;;;;;;;;;;;;;;;;2089221;28;19912;-80
2021/12/10 02:49:31;;;;;;;;;;;;;;;;;;2089138;28;19917;-80
2021/12/10 02:50:32;;;;;;;;;;;;;;;;;;2089022;28;19913;-80
2021/12/10 02:51:32;;;;;;;;;;;;;;;;;;2097980;28;20388;-80
2021/12/10 02:52:33;;;;;;;;;;;;;;;;;;2097942;28;19952;-79
2021/12/10 02:53:40;;;;;;;;;;;;;;;;;;2097791;28;19921;-79
2021/12/10 02:54:42;;;;;;;;;;;;;;;;;;2097851;28;19944;-79
2021/12/10 02:55:44;;;;;;;;;;;;;;;;;;2097853;28;20573;-79
2021/12/10 02:56:44;;;;;;;;;;;;;;;;;;2098070;28;19924;-77
2021/12/10 02:57:47;;;;;;;;;;;;;;;;;;2089054;28;19913;-80
2021/12/10 02:58:51;;;;;;;;;;;;;;;;;;2089331;28;19970;-80
2021/12/10 02:59:51;;;;;;;;;;;;;;;;;;2097821;28;19913;-80
2021/12/10 03:00:59;;;;;;;;;;;;;;;;;;2097908;28;19913;-79
2021/12/10 03:01:59;;;;;;;;;;;;;;;;;;2097920;28;19973;-80
2021/12/10 03:03:00;;;;;;;;;;;;;;;;;;2089101;28;19913;-80
2021/12/10 03:04:00;;;;;;;;;;;;;;;;;;2080834;28;20428;-81
2021/12/10 03:05:01;;;;;;;;;;;;;;;;;;2089274;28;19979;-81
2021/12/10 03:06:08;;;;;;;;;;;;;;;;;;2097691;28;19939;-80
2021/12/10 03:07:13;;;;;;;;;;;;;;;;;;2089163;28;19956;-80
2021/12/10 03:08:14;;;;;;;;;;;;;;;;;;2081311;28;19952;-80
2021/12/10 03:09:15;;;;;;;;;;;;;;;;;;2089138;28;19924;-80
2021/12/10 03:10:18;;;;;;;;;;;;;;;;;;2097770;28;20261;-80
2021/12/10 03:11:22;;;;;;;;;;;;;;;;;;2097784;28;19913;-81
2021/12/10 03:12:22;;;;;;;;;;;;;;;;;;2097852;28;19942;-79
2021/12/10 03:13:22;;;;;;;;;;;;;;;;;;2097818;28;19917;-81
2021/12/10 03:14:24;;;;;;;;;;;;;;;;;;2097760;28;19920;-80
2021/12/10 03:15:26;;;;;;;;;;;;;;;;;;2097809;28;20357;-81
2021/12/10 03:16:26;;;;;;;;;;;;;;;;;;2097778;28;19923;-80
2021/12/10 03:17:28;;;;;;;;;;;;;;;;;;2097897;28;20369;-80
2021/12/10 03:18:28;;;;;;;;;;;;;;;;;;2097925;28;19912;-80
2021/12/10 03:19:29;;;;;;;;;;;;;;;;;;2088978;28;20292;-80
2021/12/10 03:20:30;;;;;;;;;;;;;;;;;;2089205;28;20354;-80
2021/12/10 03:21:31;;;;;;;;;;;;;;;;;;2097980;28;19921;-79
2021/12/10 03:22:32;;;;;;;;;;;;;;;;;;2097769;28;19912;-79
2021/12/10 03:23:34;;;;;;;;;;;;;;;;;;2088931;28;20210;-80
2021/12/10 03:24:35;;;;;;;;;;;;;;;;;;2089431;28;19916;-81
2021/12/10 03:25:35;;;;;;;;;;;;;;;;;;2097921;28;20269;-80
2021/12/10 03:26:36;;;;;;;;;;;;;;;;;;2088997;28;19913;-80
2021/12/10 03:27:36;;;;;;;;;;;;;;;;;;2089082;28;19946;-81
2021/12/10 03:28:38;;;;;;;;;;;;;;;;;;2098837;28;20353;-80
2021/12/10 03:29:40;;;;;;;;;;;;;;;;;;2090548;28;19920;-81
2021/12/10 03:30:44;;;;;;;;;;;;;;;;;;2090813;28;19959;-81
2021/12/10 03:31:44;;;;;;;;;;;;;;;;;;2090388;28;20022;-80
2021/12/10 03:32:45;;;;;;;;;;;;;;;;;;2090683;28;19917;-80
2021/12/10 03:33:46;;;;;;;;;;;;;;;;;;2090604;28;20341;-80
2021/12/10 03:34:47;;;;;;;;;;;;;;;;;;2090685;28;19916;-80
2021/12/10 03:35:48;;;;;;;;;;;;;;;;;;2090423;28;19928;-80
2021/12/10 03:36:51;;;;;;;;;;;;;;;;;;2099299;28;19923;-80
2021/12/10 03:37:52;;;;;;;;;;;;;;;;;;2090554;28;19912;-81
2021/12/10 03:38:53;;;;;;;;;;;;;;;;;;2090681;28;20003;-80
2021/12/10 03:39:53;;;;;;;;;;;;;;;;;;2099267;28;19920;-81
2021/12/10 03:40:59;;;;;;;;;;;;;;;;;;2099351;28;20404;-81
2021/12/10 03:42:00;;;;;;;;;;;;;;;;;;2090435;28;19923;-80
2021/12/10 03:43:00;;;;;;;;;;;;;;;;;;2090585;28;19943;-80
2021/12/10 03:44:01;;;;;;;;;;;;;;;;;;2090430;28;20360;-80
2021/12/10 03:45:02;;;;;;;;;;;;;;;;;;2090662;28;19912;-80
2021/12/10 03:46:03;;;;;;;;;;;;;;;;;;2099105;28;19912;-80
2021/12/10 03:47:05;;;;;;;;;;;;;;;;;;2099152;28;20481;-81
2021/12/10 03:48:11;;;;;;;;;;;;;;;;;;2099162;28;20002;-80
2021/12/10 03:49:11;;;;;;;;;;;;;;;;;;2099125;28;20138;-81
2021/12/10 03:50:19;;;;;;;;;;;;;;;;;;2099177;28;19947;-80
2021/12/10 03:51:21;;;;;;;;;;;;;;;;;;2099275;28;19909;-80
2021/12/10 03:52:22;;;;;;;;;;;;;;;;;;2099140;28;19993;-80
2021/12/10 03:53:22;;;;;;;;;;;;;;;;;;2090361;28;19994;-80
2021/12/10 03:54:23;;;;;;;;;;;;;;;;;;2090465;28;19913;-80
2021/12/10 03:55:23;;;;;;;;;;;;;;;;;;2099100;28;19913;-80
2021/12/10 03:56:25;;;;;;;;;;;;;;;;;;2090451;28;19952;-81
2021/12/10 03:57:25;;;;;;;;;;;;;;;;;;2082252;28;20362;-79
2021/12/10 03:58:28;;;;;;;;;;;;;;;;;;2082104;28;19913;-80
2021/12/10 03:59:30;;;;;;;;;;;;;;;;;;2090574;28;20293;-80
2021/12/10 04:00:32;;;;;;;;;;;;;;;;;;2099045;28;19912;-79
2021/12/10 04:01:34;;;;;;;;;;;;;;;;;;2099087;28;19920;-79
2021/12/10 04:02:34;;;;;;;;;;;;;;;;;;2099187;28;19916;-80
2021/12/10 04:03:35;;;;;;;;;;;;;;;;;;2099100;28;19912;-79
2021/12/10 04:04:46;;;;;;;;;;;;;;;;;;2099073;28;20361;-79
2021/12/10 04:05:47;;;;;;;;;;;;;;;;;;2098997;28;19916;-79
2021/12/10 04:06:47;;;;;;;;;;;;;;;;;;2098996;28;20343;-79
2021/12/10 04:07:47;;;;;;;;;;;;;;;;;;2090255;28;19967;-79
2021/12/10 04:08:48;;;;;;;;;;;;;;;;;;2081999;28;20337;-80
2021/12/10 04:09:50;;;;;;;;;;;;;;;;;;2090252;28;20016;-80
2021/12/10 04:10:51;;;;;;;;;;;;;;;;;;2098978;28;19923;-79
2021/12/10 04:11:55;;;;;;;;;;;;;;;;;;2090189;28;20301;-80
2021/12/10 04:12:56;;;;;;;;;;;;;;;;;;2090844;28;19913;-79
2021/12/10 04:13:57;;;;;;;;;;;;;;;;;;2098952;28;20337;-80
2021/12/10 04:14:57;;;;;;;;;;;;;;;;;;2090163;28;19913;-80
2021/12/10 04:15:57;;;;;;;;;;;;;;;;;;2090163;28;19970;-80
2021/12/10 04:16:57;;;;;;;;;;;;;;;;;;2098979;28;19912;-80
2021/12/10 04:17:58;;;;;;;;;;;;;;;;;;2099054;28;19923;-80
2021/12/10 04:19:00;;;;;;;;;;;;;;;;;;2098991;28;19912;-80
2021/12/10 04:20:01;;;;;;;;;;;;;;;;;;2098913;28;19977;-80
2021/12/10 04:21:01;;;;;;;;;;;;;;;;;;2098959;28;20351;-80
2021/12/10 04:22:03;;;;;;;;;;;;;;;;;;2098855;28;20277;-78
2021/12/10 04:23:05;;;;;;;;;;;;;;;;;;2098973;28;19996;-79
2021/12/10 04:24:11;;;;;;;;;;;;;;;;;;2098909;28;19920;-79
2021/12/10 04:25:12;;;;;;;;;;;;;;;;;;2090140;28;19924;-79
2021/12/10 04:26:15;;;;;;;;;;;;;;;;;;2090173;28;19947;-80
2021/12/10 04:27:16;;;;;;;;;;;;;;;;;;2098895;28;19927;-80
2021/12/10 04:28:17;;;;;;;;;;;;;;;;;;2098882;28;19912;-80
2021/12/10 04:29:21;;;;;;;;;;;;;;;;;;2090002;28;19983;-80
2021/12/10 04:30:22;;;;;;;;;;;;;;;;;;2090089;28;20015;-80
2021/12/10 04:31:22;;;;;;;;;;;;;;;;;;2081823;28;19983;-80
2021/12/10 04:32:23;;;;;;;;;;;;;;;;;;2090156;28;20179;-80
2021/12/10 04:33:25;;;;;;;;;;;;;;;;;;2098653;28;19916;-80
2021/12/10 04:34:26;;;;;;;;;;;;;;;;;;2089887;28;19956;-80
2021/12/10 04:35:26;;;;;;;;;;;;;;;;;;2081687;28;20016;-80
2021/12/10 04:36:27;;;;;;;;;;;;;;;;;;2081741;28;20380;-80
2021/12/10 04:37:29;;;;;;;;;;;;;;;;;;2081748;28;19913;-80
2021/12/10 04:38:32;;;;;;;;;;;;;;;;;;2090237;28;20396;-80
2021/12/10 04:39:34;;;;;;;;;;;;;;;;;;2089497;28;19923;-80
2021/12/10 04:40:34;;;;;;;;;;;;;;;;;;2090145;28;20003;-80
2021/12/10 04:41:35;;;;;;;;;;;;;;;;;;2090150;28;19917;-79
2021/12/10 04:42:35;;;;;;;;;;;;;;;;;;2089971;28;19912;-80
2021/12/10 04:43:36;;;;;;;;;;;;;;;;;;2098817;28;19912;-80
2021/12/10 04:44:37;;;;;;;;;;;;;;;;;;2089915;28;19917;-80
2021/12/10 04:45:37;;;;;;;;;;;;;;;;;;2090046;28;19955;-79
2021/12/10 04:46:37;;;;;;;;;;;;;;;;;;2098661;28;19923;-79
2021/12/10 04:47:38;;;;;;;;;;;;;;;;;;2098713;28;19913;-80
2021/12/10 04:48:43;;;;;;;;;;;;;;;;;;2089923;28;20361;-80
2021/12/10 04:49:44;;;;;;;;;;;;;;;;;;2090637;28;19939;-79
2021/12/10 04:50:44;;;;;;;;;;;;;;;;;;2089784;28;20400;-80
2021/12/10 04:51:48;;;;;;;;;;;;;;;;;;2089915;28;19960;-80
2021/12/10 04:52:48;;;;;;;;;;;;;;;;;;2090266;28;19995;-79
2021/12/10 04:53:49;;;;;;;;;;;;;;;;;;2098607;28;19912;-79
2021/12/10 04:54:50;;;;;;;;;;;;;;;;;;2098648;28;20301;-80
2021/12/10 04:55:50;;;;;;;;;;;;;;;;;;2098519;28;19905;-79
2021/12/10 04:56:51;;;;;;;;;;;;;;;;;;2098604;28;19995;-79
2021/12/10 04:57:52;;;;;;;;;;;;;;;;;;2098563;28;20202;-80
2021/12/10 04:58:52;;;;;;;;;;;;;;;;;;2098513;28;19912;-81
2021/12/10 04:59:53;;;;;;;;;;;;;;;;;;2098654;28;19912;-81
2021/12/10 05:00:53;;;;;;;;;;;;;;;;;;2098581;28;19927;-79
2021/12/10 05:01:55;;;;;;;;;;;;;;;;;;2098494;28;20361;-79
2021/12/10 05:02:56;;;;;;;;;;;;;;;;;;2098632;28;20105;-79
2021/12/10 05:03:56;;;;;;;;;;;;;;;;;;2098458;28;19913;-80
2021/12/10 05:04:58;;;;;;;;;;;;;;;;;;2098629;28;20238;-79
2021/12/10 05:06:03;;;;;;;;;;;;;;;;;;2098432;28;20246;-80
2021/12/10 05:07:05;;;;;;;;;;;;;;;;;;2098492;28;19913;-79
2021/12/10 05:08:05;;;;;;;;;;;;;;;;;;2089663;28;19923;-79
2021/12/10 05:09:07;;;;;;;;;;;;;;;;;;2089837;28;20367;-79
2021/12/10 05:10:09;;;;;;;;;;;;;;;;;;2098175;28;20089;-80
2021/12/10 05:11:10;;;;;;;;;;;;;;;;;;2098552;28;19927;-80
2021/12/10 05:12:11;;;;;;;;;;;;;;;;;;2098467;28;20430;-80
2021/12/10 05:13:11;;;;;;;;;;;;;;;;;;2089628;28;19967;-80
2021/12/10 05:14:11;;;;;;;;;;;;;;;;;;2089712;28;19928;-79
2021/12/10 05:15:15;;;;;;;;;;;;;;;;;;2098564;28;19920;-79
2021/12/10 05:16:17;;;;;;;;;;;;;;;;;;2098309;28;19920;-80
2021/12/10 05:17:24;;;;;;;;;;;;;;;;;;2089687;28;19924;-79
2021/12/10 05:18:26;;;;;;;;;;;;;;;;;;2090657;28;20393;-79
2021/12/10 05:19:28;;;;;;;;;;;;;;;;;;2089707;28;20349;-79
2021/12/10 05:20:32;;;;;;;;;;;;;;;;;;2089694;28;20293;-79
2021/12/10 05:21:33;;;;;;;;;;;;;;;;;;2098480;28;19913;-79
2021/12/10 05:22:34;;;;;;;;;;;;;;;;;;2098333;28;20338;-79
2021/12/10 05:23:36;;;;;;;;;;;;;;;;;;2098481;28;19969;-78
2021/12/10 05:24:37;;;;;;;;;;;;;;;;;;2098250;28;19990;-78
2021/12/10 05:25:39;;;;;;;;;;;;;;;;;;2098303;28;19913;-80
2021/12/10 05:26:40;;;;;;;;;;;;;;;;;;2098294;28;19944;-80
2021/12/10 05:27:41;;;;;;;;;;;;;;;;;;2098374;28;19912;-81
2021/12/10 05:28:42;;;;;;;;;;;;;;;;;;2089626;28;20004;-81
2021/12/10 05:29:42;;;;;;;;;;;;;;;;;;2089715;28;19912;-81
2021/12/10 05:30:43;;;;;;;;;;;;;;;;;;2098247;28;19981;-80
2021/12/10 05:31:44;;;;;;;;;;;;;;;;;;2098383;28;19913;-80
2021/12/10 05:32:45;;;;;;;;;;;;;;;;;;2098285;28;19923;-80
2021/12/10 05:33:45;;;;;;;;;;;;;;;;;;2098280;28;20384;-83
2021/12/10 05:34:46;;;;;;;;;;;;;;;;;;2098259;28;20357;-82
2021/12/10 05:35:50;;;;;;;;;;;;;;;;;;2098190;28;19924;-83
2021/12/10 05:36:51;;;;;;;;;;;;;;;;;;2098281;28;20449;-83
2021/12/10 05:37:51;;;;;;;;;;;;;;;;;;2098359;28;19912;-82
2021/12/10 05:38:53;;;;;;;;;;;;;;;;;;2098434;28;19924;-83
2021/12/10 05:39:53;;;;;;;;;;;;;;;;;;2098415;28;19923;-83
2021/12/10 05:40:54;;;;;;;;;;;;;;;;;;2098259;28;19913;-83
2021/12/10 05:41:54;;;;;;;;;;;;;;;;;;2098244;28;19917;-85
2021/12/10 05:42:55;;;;;;;;;;;;;;;;;;2098227;28;19923;-83
2021/12/10 05:43:55;;;;;;;;;;;;;;;;;;2098214;28;20352;-83
2021/12/10 05:44:55;;;;;;;;;;;;;;;;;;2098288;28;19912;-83
2021/12/10 05:46:00;;;;;;;;;;;;;;;;;;2098392;28;19920;-82
2021/12/10 05:47:01;;;;;;;;;;;;;;;;;;2098334;28;19974;-83
2021/12/10 05:48:02;;;;;;;;;;;;;;;;;;2098713;28;19912;-83
2021/12/10 05:49:02;;;;;;;;;;;;;;;;;;2098233;28;20300;-89
2021/12/10 05:50:04;;;;;;;;;;;;;;;;;;2098037;28;20026;-83
2021/12/10 05:51:05;;;;;;;;;;;;;;;;;;2097380;28;19927;-83
2021/12/10 05:52:06;;;;;;;;;;;;;;;;;;2089380;28;19913;-84
2021/12/10 05:53:07;;;;;;;;;;;;;;;;;;2089536;28;20035;-84
2021/12/10 05:54:07;;;;;;;;;;;;;;;;;;2097975;28;19924;-83
2021/12/10 05:55:08;;;;;;;;;;;;;;;;;;2098215;28;20046;-83
2021/12/10 05:56:09;;;;;;;;;;;;;;;;;;2097543;28;19912;-83
2021/12/10 05:57:10;;;;;;;;;;;;;;;;;;2097819;28;19912;-83
2021/12/10 05:58:11;;;;;;;;;;;;;;;;;;2098136;28;19939;-83
2021/12/10 05:59:11;;;;;;;;;;;;;;;;;;2098266;28;19955;-83
2021/12/10 06:00:14;;;;;;;;;;;;;;;;;;2098141;28;20117;-83
2021/12/10 06:01:16;;;;;;;;;;;;;;;;;;2098237;28;19927;-84
2021/12/10 06:02:16;;;;;;;;;;;;;;;;;;2098089;28;19916;-83
2021/12/10 06:03:19;;;;;;;;;;;;;;;;;;2098175;28;19912;-84
2021/12/10 06:04:23;;;;;;;;;;;;;;;;;;2098206;28;19913;-83
2021/12/10 06:05:24;;;;;;;;;;;;;;;;;;2098032;28;20346;-84
2021/12/10 06:06:31;;;;;;;;;;;;;;;;;;2098083;28;19974;-84
2021/12/10 06:07:31;;;;;;;;;;;;;;;;;;2098237;28;20140;-83
2021/12/10 06:08:35;;;;;;;;;;;;;;;;;;2097970;28;19951;-83
2021/12/10 06:09:35;;;;;;;;;;;;;;;;;;2098144;28;19912;-83
2021/12/10 06:10:37;;;;;;;;;;;;;;;;;;2098025;28;20423;-83
2021/12/10 06:11:37;;;;;;;;;;;;;;;;;;2098143;28;20288;-83
2021/12/10 06:12:37;;;;;;;;;;;;;;;;;;2098014;28;19913;-83
2021/12/10 06:13:38;;;;;;;;;;;;;;;;;;2098001;28;19917;-83
2021/12/10 06:14:40;;;;;;;;;;;;;;;;;;2098047;28;19913;-83
2021/12/10 06:15:40;;;;;;;;;;;;;;;;;;2089299;28;19919;-84
2021/12/10 06:16:42;;;;;;;;;;;;;;;;;;2089336;28;19921;-83
2021/12/10 06:17:43;;;;;;;;;;;;;;;;;;2098229;28;20313;-83
2021/12/10 06:18:44;;;;;;;;;;;;;;;;;;2098143;28;19993;-83
2021/12/10 06:19:44;;;;;;;;;;;;;;;;;;2098118;28;19924;-83
2021/12/10 06:20:46;;;;;;;;;;;;;;;;;;2098061;28;19921;-83
2021/12/10 06:21:50;;;;;;;;;;;;;;;;;;2098018;28;20278;-83
2021/12/10 06:22:51;;;;;;;;;;;;;;;;;;2098018;28;19912;-83
2021/12/10 06:23:51;;;;;;;;;;;;;;;;;;2089235;28;19923;-83
2021/12/10 06:24:52;;;;;;;;;;;;;;;;;;2089310;28;20288;-83
2021/12/10 06:25:53;;;;;;;;;;;;;;;;;;2097942;28;19959;-85
2021/12/10 06:26:53;;;;;;;;;;;;;;;;;;2097951;28;19968;-83
2021/12/10 06:27:54;;;;;;;;;;;;;;;;;;2089253;28;20187;-83
2021/12/10 06:28:54;;;;;;;;;;;;;;;;;;2089312;28;19960;-83
2021/12/10 06:31:36;;;;;;;;;;;;;;;;;;2079522;28;19957;-83
2021/12/10 06:32:37;;;;;;;;;;;;;;;;;;2091818;28;19912;-82
2021/12/10 06:33:39;;;;;;;;;;;;;;;;;;2097268;28;19920;-82
2021/12/10 06:34:40;;;;;;;;;;;;;;;;;;2097439;28;20329;-82
2021/12/10 06:35:47;;;;;;;;;;;;;;;;;;2097515;28;19977;-82
2021/12/10 06:36:48;;;;;;;;;;;;;;;;;;2097972;28;19952;-83
2021/12/10 06:37:49;;;;;;;;;;;;;;;;;;2097828;28;19942;-83
2021/12/10 06:39:00;;;;;;;;;;;;;;;;;;;;;
2021/12/10 06:40:00;;;;;;;;;;;;;;;;;;2097942;28;20364;-83
2021/12/10 06:41:01;;;;;;;;;;;;;;;;;;2098127;28;19936;-83
2021/12/10 06:42:02;;;;;;;;;;;;;;;;;;2097927;28;20057;-83
2021/12/10 06:43:05;;;;;;;;;;;;;;;;;;2098039;28;20251;-82
2021/12/10 06:44:23;;;;;;;;;;;;;;;;;;2089178;28;19956;-82
2021/12/10 06:45:32;;;;;;;;;;;;;;;;;;2091794;28;19909;-82
2021/12/10 06:46:35;;;;;;;;;;;;;;;;;;2089202;28;19920;-83
2021/12/10 06:47:36;;;;;;;;;;;;;;;;;;2090480;28;19913;-82
2021/12/10 06:48:36;;;;;;;;;;;;;;;;;;2098150;28;19960;-82
2021/12/10 06:49:37;;;;;;;;;;;;;;;;;;2098050;28;20337;-83
2021/12/10 06:50:40;;;;;;;;;;;;;;;;;;2098068;28;19912;-82
2021/12/10 06:51:41;;;;;;;;;;;;;;;;;;2097921;28;19913;-82
2021/12/10 06:52:41;;;;;;;;;;;;;;;;;;2097823;28;19942;-82
2021/12/10 06:53:43;;;;;;;;;;;;;;;;;;2097951;28;19952;-82
2021/12/10 06:54:43;;;;;;;;;;;;;;;;;;2097860;28;19952;-82
2021/12/10 06:55:43;;;;;;;;;;;;;;;;;;2097941;28;19916;-83
2021/12/10 06:56:44;;;;;;;;;;;;;;;;;;2097848;28;20422;-82
2021/12/10 06:57:44;;;;;;;;;;;;;;;;;;2097955;28;20361;-83
2021/12/10 06:58:45;;;;;;;;;;;;;;;;;;2097906;28;19923;-82
2021/12/10 06:59:46;;;;;;;;;;;;;;;;;;2097888;28;19916;-82
2021/12/10 07:00:52;;;;;;;;;;;;;;;;;;2097851;28;19912;-82
2021/12/10 07:01:52;;;;;;;;;;;;;;;;;;2098367;28;19912;-86
2021/12/10 07:02:53;;;;;;;;;;;;;;;;;;2099684;28;20023;-82
2021/12/10 07:03:56;;;;;;;;;;;;;;;;;;2090883;28;19913;-82
2021/12/10 07:04:56;;;;;;;;;;;;;;;;;;2091031;28;19913;-84
2021/12/10 07:05:58;;;;;;;;;;;;;;;;;;2090728;28;19960;-83
2021/12/10 07:07:02;;;;;;;;;;;;;;;;;;2090838;28;19912;-82
2021/12/10 07:08:03;;;;;;;;;;;;;;;;;;2099550;28;19950;-82
2021/12/10 07:09:05;;;;;;;;;;;;;;;;;;2090516;28;20419;-82
2021/12/10 07:10:07;;;;;;;;;;;;;;;;;;2090889;28;19913;-82
2021/12/10 07:11:09;;;;;;;;;;;;;;;;;;2099383;28;19912;-83
2021/12/10 07:12:12;;;;;;;;;;;;;;;;;;2099380;28;19912;-83
2021/12/10 07:13:13;;;;;;;;;;;;;;;;;;2099369;28;19924;-83
2021/12/10 07:14:14;;;;;;;;;;;;;;;;;;2099395;28;20258;-81
2021/12/10 07:15:15;;;;;;;;;;;;;;;;;;2099396;28;19923;-82
2021/12/10 07:16:16;;;;;;;;;;;;;;;;;;2099402;28;19955;-83
2021/12/10 07:17:16;;;;;;;;;;;;;;;;;;2099294;28;19917;-82